sensor_id;sensor_type;location;lat;lon;timestamp;P1;durP1;ratioP1;P2;durP2;ratioP2
51616;SDS011;37697;52.588;13.394;2023-01-31T00:04:32;16.20;;;3.00;;
51616;SDS011;37697;52.588;13.394;2023-01-31T00:09:35;16.60;;;2.80;;
51616;SDS011;37697;52.588;13.394;2023-01-31T00:14:38;16.80;;;2.30;;
51616;SDS011;37697;52.588;13.394;2023-01-31T00:19:41;13.30;;;3.00;;
51616;SDS011;37697;52.588;13.394;2023-01-31T00:24:44;11.10;;;1.90;;
51616;SDS011;37697;52.588;13.394;2023-01-31T00:29:48;13.70;;;3.30;;
51616;SDS011;37697;52.588;13.394;2023-01-31T00:34:51;12.70;;;2.40;;
51616;SDS011;37697;52.588;13.394;2023-01-31T00:39:55;15.00;;;2.50;;
51616;SDS011;37697;52.588;13.394;2023-01-31T00:44:58;17.60;;;2.20;;
51616;SDS011;37697;52.588;13.394;2023-01-31T00:50:00;11.70;;;2.00;;
51616;SDS011;37697;52.588;13.394;2023-01-31T00:55:04;10.90;;;2.40;;
51616;SDS011;37697;52.588;13.394;2023-01-31T01:00:07;21.50;;;2.90;;
51616;SDS011;37697;52.588;13.394;2023-01-31T01:05:10;11.40;;;2.00;;
51616;SDS011;37697;52.588;13.394;2023-01-31T01:10:13;16.90;;;3.10;;
51616;SDS011;37697;52.588;13.394;2023-01-31T01:15:16;14.30;;;2.20;;
51616;SDS011;37697;52.588;13.394;2023-01-31T01:20:20;11.80;;;2.20;;
51616;SDS011;37697;52.588;13.394;2023-01-31T01:25:23;8.60;;;1.40;;
51616;SDS011;37697;52.588;13.394;2023-01-31T01:30:26;15.80;;;2.20;;
51616;SDS011;37697;52.588;13.394;2023-01-31T01:35:29;14.50;;;3.10;;
51616;SDS011;37697;52.588;13.394;2023-01-31T01:40:34;13.10;;;2.30;;
51616;SDS011;37697;52.588;13.394;2023-01-31T01:45:38;10.90;;;2.00;;
51616;SDS011;37697;52.588;13.394;2023-01-31T01:50:41;13.50;;;2.10;;
51616;SDS011;37697;52.588;13.394;2023-01-31T01:55:49;9.70;;;2.10;;
51616;SDS011;37697;52.588;13.394;2023-01-31T02:00:55;9.20;;;1.90;;
51616;SDS011;37697;52.588;13.394;2023-01-31T02:05:59;13.70;;;2.20;;
51616;SDS011;37697;52.588;13.394;2023-01-31T02:11:10;13.70;;;2.60;;
51616;SDS011;37697;52.588;13.394;2023-01-31T02:16:25;12.40;;;2.70;;
51616;SDS011;37697;52.588;13.394;2023-01-31T02:53:39;11.30;;;2.00;;
51616;SDS011;37697;52.588;13.394;2023-01-31T02:58:57;9.40;;;1.60;;
51616;SDS011;37697;52.588;13.394;2023-01-31T03:04:05;8.10;;;1.80;;
51616;SDS011;37697;52.588;13.394;2023-01-31T03:09:13;10.60;;;1.80;;
51616;SDS011;37697;52.588;13.394;2023-01-31T03:14:30;9.70;;;1.90;;
51616;SDS011;37697;52.588;13.394;2023-01-31T03:25:14;9.20;;;1.90;;
51616;SDS011;37697;52.588;13.394;2023-01-31T03:30:22;10.50;;;1.80;;
51616;SDS011;37697;52.588;13.394;2023-01-31T03:35:32;10.00;;;1.80;;
51616;SDS011;37697;52.588;13.394;2023-01-31T03:41:23;9.50;;;1.50;;
51616;SDS011;37697;52.588;13.394;2023-01-31T03:46:27;11.70;;;1.70;;
51616;SDS011;37697;52.588;13.394;2023-01-31T03:51:32;11.70;;;1.70;;
51616;SDS011;37697;52.588;13.394;2023-01-31T03:56:41;10.80;;;2.20;;
51616;SDS011;37697;52.588;13.394;2023-01-31T04:01:48;12.40;;;1.90;;
51616;SDS011;37697;52.588;13.394;2023-01-31T04:06:54;9.30;;;1.80;;
51616;SDS011;37697;52.588;13.394;2023-01-31T04:12:01;10.30;;;1.70;;
51616;SDS011;37697;52.588;13.394;2023-01-31T04:17:04;7.70;;;1.80;;
51616;SDS011;37697;52.588;13.394;2023-01-31T04:22:07;13.40;;;1.60;;
51616;SDS011;37697;52.588;13.394;2023-01-31T04:27:09;13.80;;;2.50;;
51616;SDS011;37697;52.588;13.394;2023-01-31T04:32:12;9.80;;;2.00;;
51616;SDS011;37697;52.588;13.394;2023-01-31T04:37:15;17.60;;;2.20;;
51616;SDS011;37697;52.588;13.394;2023-01-31T04:42:18;12.40;;;1.80;;
51616;SDS011;37697;52.588;13.394;2023-01-31T04:47:21;10.50;;;2.50;;
51616;SDS011;37697;52.588;13.394;2023-01-31T04:52:24;7.90;;;1.50;;
51616;SDS011;37697;52.588;13.394;2023-01-31T04:57:26;9.20;;;2.00;;
51616;SDS011;37697;52.588;13.394;2023-01-31T05:02:30;8.30;;;1.20;;
51616;SDS011;37697;52.588;13.394;2023-01-31T05:07:33;13.30;;;2.10;;
51616;SDS011;37697;52.588;13.394;2023-01-31T05:12:36;12.00;;;2.80;;
51616;SDS011;37697;52.588;13.394;2023-01-31T05:17:38;16.30;;;2.30;;
51616;SDS011;37697;52.588;13.394;2023-01-31T05:22:41;9.50;;;1.60;;
51616;SDS011;37697;52.588;13.394;2023-01-31T05:27:44;11.60;;;1.60;;
51616;SDS011;37697;52.588;13.394;2023-01-31T05:32:47;12.00;;;2.30;;
51616;SDS011;37697;52.588;13.394;2023-01-31T05:37:54;10.00;;;2.10;;
51616;SDS011;37697;52.588;13.394;2023-01-31T05:42:57;12.00;;;2.30;;
51616;SDS011;37697;52.588;13.394;2023-01-31T05:48:04;10.40;;;2.20;;
51616;SDS011;37697;52.588;13.394;2023-01-31T05:53:08;9.00;;;1.90;;
51616;SDS011;37697;52.588;13.394;2023-01-31T05:58:10;12.50;;;2.10;;
51616;SDS011;37697;52.588;13.394;2023-01-31T06:03:13;11.90;;;2.70;;
51616;SDS011;37697;52.588;13.394;2023-01-31T06:08:16;15.20;;;2.40;;
51616;SDS011;37697;52.588;13.394;2023-01-31T06:13:19;13.90;;;2.30;;
51616;SDS011;37697;52.588;13.394;2023-01-31T06:18:22;16.50;;;3.60;;
51616;SDS011;37697;52.588;13.394;2023-01-31T06:23:25;11.80;;;2.40;;
51616;SDS011;37697;52.588;13.394;2023-01-31T06:28:29;12.80;;;1.90;;
51616;SDS011;37697;52.588;13.394;2023-01-31T06:33:32;16.30;;;2.80;;
51616;SDS011;37697;52.588;13.394;2023-01-31T06:38:48;16.40;;;4.00;;
51616;SDS011;37697;52.588;13.394;2023-01-31T06:43:55;16.00;;;2.80;;
51616;SDS011;37697;52.588;13.394;2023-01-31T06:48:58;16.40;;;2.90;;
51616;SDS011;37697;52.588;13.394;2023-01-31T06:54:00;11.40;;;2.20;;
51616;SDS011;37697;52.588;13.394;2023-01-31T06:59:03;10.60;;;1.80;;
51616;SDS011;37697;52.588;13.394;2023-01-31T07:04:06;9.50;;;2.20;;
51616;SDS011;37697;52.588;13.394;2023-01-31T07:09:09;10.50;;;1.60;;
51616;SDS011;37697;52.588;13.394;2023-01-31T07:14:12;10.40;;;1.80;;
51616;SDS011;37697;52.588;13.394;2023-01-31T07:19:15;8.10;;;1.60;;
51616;SDS011;37697;52.588;13.394;2023-01-31T07:24:18;10.60;;;2.30;;
51616;SDS011;37697;52.588;13.394;2023-01-31T07:29:21;12.10;;;3.00;;
51616;SDS011;37697;52.588;13.394;2023-01-31T07:34:23;11.70;;;2.10;;
51616;SDS011;37697;52.588;13.394;2023-01-31T07:39:27;9.90;;;2.30;;
51616;SDS011;37697;52.588;13.394;2023-01-31T07:44:30;10.40;;;2.00;;
51616;SDS011;37697;52.588;13.394;2023-01-31T07:49:33;11.70;;;2.70;;
51616;SDS011;37697;52.588;13.394;2023-01-31T07:54:36;10.80;;;2.80;;
51616;SDS011;37697;52.588;13.394;2023-01-31T07:59:38;10.20;;;2.10;;
51616;SDS011;37697;52.588;13.394;2023-01-31T08:04:41;13.80;;;3.40;;
51616;SDS011;37697;52.588;13.394;2023-01-31T08:09:44;8.50;;;1.80;;
51616;SDS011;37697;52.588;13.394;2023-01-31T08:14:48;13.40;;;2.30;;
51616;SDS011;37697;52.588;13.394;2023-01-31T08:19:51;12.80;;;2.60;;
51616;SDS011;37697;52.588;13.394;2023-01-31T08:24:54;10.50;;;2.70;;
51616;SDS011;37697;52.588;13.394;2023-01-31T08:29:56;12.50;;;2.30;;
51616;SDS011;37697;52.588;13.394;2023-01-31T08:34:59;12.00;;;3.30;;
51616;SDS011;37697;52.588;13.394;2023-01-31T08:40:01;9.30;;;2.00;;
51616;SDS011;37697;52.588;13.394;2023-01-31T08:45:05;10.30;;;1.80;;
51616;SDS011;37697;52.588;13.394;2023-01-31T08:50:09;11.80;;;2.40;;
51616;SDS011;37697;52.588;13.394;2023-01-31T08:55:29;10.10;;;2.60;;
51616;SDS011;37697;52.588;13.394;2023-01-31T09:00:33;10.00;;;1.90;;
51616;SDS011;37697;52.588;13.394;2023-01-31T09:05:35;10.90;;;2.30;;
51616;SDS011;37697;52.588;13.394;2023-01-31T09:10:38;11.90;;;2.10;;
51616;SDS011;37697;52.588;13.394;2023-01-31T09:15:41;12.10;;;2.60;;
51616;SDS011;37697;52.588;13.394;2023-01-31T09:20:43;15.90;;;2.40;;
51616;SDS011;37697;52.588;13.394;2023-01-31T09:25:53;14.60;;;3.00;;
51616;SDS011;37697;52.588;13.394;2023-01-31T09:31:01;12.90;;;2.30;;
51616;SDS011;37697;52.588;13.394;2023-01-31T09:36:07;16.40;;;2.90;;
51616;SDS011;37697;52.588;13.394;2023-01-31T09:41:22;15.90;;;2.70;;
51616;SDS011;37697;52.588;13.394;2023-01-31T09:46:31;14.20;;;2.80;;
51616;SDS011;37697;52.588;13.394;2023-01-31T09:51:39;13.70;;;2.80;;
51616;SDS011;37697;52.588;13.394;2023-01-31T09:56:44;12.20;;;2.90;;
51616;SDS011;37697;52.588;13.394;2023-01-31T10:02:10;19.30;;;3.00;;
51616;SDS011;37697;52.588;13.394;2023-01-31T10:12:38;17.30;;;3.40;;
51616;SDS011;37697;52.588;13.394;2023-01-31T10:17:47;11.10;;;2.60;;
51616;SDS011;37697;52.588;13.394;2023-01-31T10:28:16;13.10;;;3.20;;
51616;SDS011;37697;52.588;13.394;2023-01-31T10:39:00;12.00;;;2.90;;
51616;SDS011;37697;52.588;13.394;2023-01-31T10:44:52;12.40;;;2.40;;
51616;SDS011;37697;52.588;13.394;2023-01-31T10:49:52;10.00;;;2.30;;
51616;SDS011;37697;52.588;13.394;2023-01-31T11:00:31;19.90;;;2.90;;
51616;SDS011;37697;52.588;13.394;2023-01-31T11:05:36;13.10;;;2.40;;
51616;SDS011;37697;52.588;13.394;2023-01-31T11:10:50;14.00;;;2.80;;
51616;SDS011;37697;52.588;13.394;2023-01-31T11:15:54;18.50;;;3.50;;
51616;SDS011;37697;52.588;13.394;2023-01-31T11:20:57;13.20;;;2.80;;
51616;SDS011;37697;52.588;13.394;2023-01-31T11:26:02;11.50;;;2.70;;
51616;SDS011;37697;52.588;13.394;2023-01-31T11:31:07;13.70;;;4.00;;
51616;SDS011;37697;52.588;13.394;2023-01-31T11:36:20;17.50;;;3.10;;
51616;SDS011;37697;52.588;13.394;2023-01-31T11:41:33;12.40;;;3.60;;
51616;SDS011;37697;52.588;13.394;2023-01-31T11:51:46;12.40;;;3.20;;
51616;SDS011;37697;52.588;13.394;2023-01-31T11:56:50;13.00;;;3.40;;
51616;SDS011;37697;52.588;13.394;2023-01-31T12:01:54;19.10;;;3.80;;
51616;SDS011;37697;52.588;13.394;2023-01-31T12:07:02;17.70;;;3.70;;
51616;SDS011;37697;52.588;13.394;2023-01-31T12:12:34;17.40;;;4.00;;
51616;SDS011;37697;52.588;13.394;2023-01-31T12:17:40;13.00;;;3.60;;
51616;SDS011;37697;52.588;13.394;2023-01-31T12:28:30;10.90;;;2.90;;
51616;SDS011;37697;52.588;13.394;2023-01-31T12:33:43;12.40;;;3.10;;
51616;SDS011;37697;52.588;13.394;2023-01-31T12:49:45;13.00;;;3.70;;
51616;SDS011;37697;52.588;13.394;2023-01-31T12:55:14;10.30;;;3.40;;
51616;SDS011;37697;52.588;13.394;2023-01-31T13:00:31;14.20;;;4.10;;
51616;SDS011;37697;52.588;13.394;2023-01-31T13:06:14;15.00;;;5.00;;
51616;SDS011;37697;52.588;13.394;2023-01-31T13:11:24;8.60;;;3.00;;
51616;SDS011;37697;52.588;13.394;2023-01-31T13:21:47;11.20;;;3.90;;
51616;SDS011;37697;52.588;13.394;2023-01-31T13:26:58;13.20;;;4.00;;
51616;SDS011;37697;52.588;13.394;2023-01-31T13:32:08;11.80;;;4.30;;
51616;SDS011;37697;52.588;13.394;2023-01-31T13:37:14;12.40;;;5.20;;
51616;SDS011;37697;52.588;13.394;2023-01-31T13:42:22;14.10;;;4.50;;
51616;SDS011;37697;52.588;13.394;2023-01-31T13:47:29;9.40;;;5.10;;
51616;SDS011;37697;52.588;13.394;2023-01-31T13:52:44;12.30;;;5.40;;
51616;SDS011;37697;52.588;13.394;2023-01-31T13:57:54;13.60;;;5.10;;
51616;SDS011;37697;52.588;13.394;2023-01-31T14:03:09;10.60;;;4.70;;
51616;SDS011;37697;52.588;13.394;2023-01-31T14:18:52;11.20;;;5.60;;
51616;SDS011;37697;52.588;13.394;2023-01-31T14:23:55;7.60;;;4.70;;
51616;SDS011;37697;52.588;13.394;2023-01-31T14:29:09;8.90;;;5.20;;
51616;SDS011;37697;52.588;13.394;2023-01-31T14:34:28;11.80;;;7.10;;
51616;SDS011;37697;52.588;13.394;2023-01-31T14:39:53;4.80;;;3.40;;
51616;SDS011;37697;52.588;13.394;2023-01-31T14:50:57;8.60;;;5.90;;
51616;SDS011;37697;52.588;13.394;2023-01-31T15:01:21;8.10;;;5.50;;
51616;SDS011;37697;52.588;13.394;2023-01-31T15:06:36;7.50;;;5.10;;
51616;SDS011;37697;52.588;13.394;2023-01-31T15:11:52;8.40;;;5.90;;
51616;SDS011;37697;52.588;13.394;2023-01-31T15:17:09;6.80;;;5.20;;
51616;SDS011;37697;52.588;13.394;2023-01-31T15:22:36;7.80;;;6.00;;
51616;SDS011;37697;52.588;13.394;2023-01-31T15:27:42;11.50;;;7.80;;
51616;SDS011;37697;52.588;13.394;2023-01-31T15:32:55;9.70;;;5.80;;
51616;SDS011;37697;52.588;13.394;2023-01-31T15:38:20;9.30;;;6.10;;
51616;SDS011;37697;52.588;13.394;2023-01-31T15:43:42;10.20;;;6.30;;
51616;SDS011;37697;52.588;13.394;2023-01-31T15:48:45;8.70;;;6.80;;
51616;SDS011;37697;52.588;13.394;2023-01-31T15:53:48;10.90;;;6.30;;
51616;SDS011;37697;52.588;13.394;2023-01-31T15:59:01;10.30;;;7.80;;
51616;SDS011;37697;52.588;13.394;2023-01-31T16:04:11;11.40;;;7.00;;
51616;SDS011;37697;52.588;13.394;2023-01-31T16:14:47;10.00;;;7.80;;
51616;SDS011;37697;52.588;13.394;2023-01-31T16:19:51;10.50;;;9.40;;
51616;SDS011;37697;52.588;13.394;2023-01-31T16:25:00;14.20;;;10.90;;
51616;SDS011;37697;52.588;13.394;2023-01-31T16:30:05;12.90;;;9.30;;
51616;SDS011;37697;52.588;13.394;2023-01-31T16:35:19;10.70;;;8.30;;
51616;SDS011;37697;52.588;13.394;2023-01-31T16:40:30;12.10;;;9.20;;
51616;SDS011;37697;52.588;13.394;2023-01-31T16:45:36;13.00;;;9.90;;
51616;SDS011;37697;52.588;13.394;2023-01-31T16:50:39;13.40;;;9.70;;
51616;SDS011;37697;52.588;13.394;2023-01-31T16:55:45;12.20;;;9.30;;
51616;SDS011;37697;52.588;13.394;2023-01-31T17:00:47;11.60;;;10.00;;
51616;SDS011;37697;52.588;13.394;2023-01-31T17:05:52;11.30;;;8.60;;
51616;SDS011;37697;52.588;13.394;2023-01-31T17:10:55;11.00;;;8.10;;
51616;SDS011;37697;52.588;13.394;2023-01-31T17:15:58;11.00;;;8.80;;
51616;SDS011;37697;52.588;13.394;2023-01-31T17:21:01;13.40;;;9.60;;
51616;SDS011;37697;52.588;13.394;2023-01-31T17:26:07;11.40;;;9.00;;
51616;SDS011;37697;52.588;13.394;2023-01-31T17:31:18;11.80;;;9.90;;
51616;SDS011;37697;52.588;13.394;2023-01-31T17:36:23;14.80;;;12.70;;
51616;SDS011;37697;52.588;13.394;2023-01-31T17:41:25;14.20;;;11.60;;
51616;SDS011;37697;52.588;13.394;2023-01-31T17:46:29;16.40;;;11.70;;
51616;SDS011;37697;52.588;13.394;2023-01-31T17:51:33;15.40;;;11.00;;
51616;SDS011;37697;52.588;13.394;2023-01-31T17:56:36;15.00;;;12.20;;
51616;SDS011;37697;52.588;13.394;2023-01-31T18:01:39;18.80;;;11.20;;
51616;SDS011;37697;52.588;13.394;2023-01-31T18:06:42;11.20;;;8.90;;
51616;SDS011;37697;52.588;13.394;2023-01-31T18:11:44;12.70;;;9.50;;
51616;SDS011;37697;52.588;13.394;2023-01-31T18:16:51;12.20;;;8.30;;
51616;SDS011;37697;52.588;13.394;2023-01-31T18:21:55;11.00;;;8.00;;
51616;SDS011;37697;52.588;13.394;2023-01-31T18:26:58;13.10;;;8.00;;
51616;SDS011;37697;52.588;13.394;2023-01-31T18:32:01;9.30;;;7.00;;
51616;SDS011;37697;52.588;13.394;2023-01-31T18:37:06;8.70;;;5.30;;
51616;SDS011;37697;52.588;13.394;2023-01-31T18:42:14;9.30;;;6.30;;
51616;SDS011;37697;52.588;13.394;2023-01-31T18:47:18;7.30;;;5.90;;
51616;SDS011;37697;52.588;13.394;2023-01-31T18:52:20;10.70;;;5.80;;
51616;SDS011;37697;52.588;13.394;2023-01-31T18:57:23;7.80;;;5.30;;
51616;SDS011;37697;52.588;13.394;2023-01-31T19:02:25;9.50;;;5.20;;
51616;SDS011;37697;52.588;13.394;2023-01-31T19:07:29;5.20;;;3.30;;
51616;SDS011;37697;52.588;13.394;2023-01-31T19:12:33;11.10;;;4.40;;
51616;SDS011;37697;52.588;13.394;2023-01-31T19:17:40;7.30;;;1.50;;
51616;SDS011;37697;52.588;13.394;2023-01-31T19:22:43;5.80;;;1.40;;
51616;SDS011;37697;52.588;13.394;2023-01-31T19:27:45;5.40;;;1.20;;
51616;SDS011;37697;52.588;13.394;2023-01-31T19:32:48;7.10;;;1.40;;
51616;SDS011;37697;52.588;13.394;2023-01-31T19:37:51;4.70;;;1.40;;
51616;SDS011;37697;52.588;13.394;2023-01-31T19:42:55;5.90;;;1.20;;
51616;SDS011;37697;52.588;13.394;2023-01-31T19:47:58;10.10;;;1.60;;
51616;SDS011;37697;52.588;13.394;2023-01-31T19:53:02;6.20;;;1.20;;
51616;SDS011;37697;52.588;13.394;2023-01-31T19:58:05;6.50;;;1.40;;
51616;SDS011;37697;52.588;13.394;2023-01-31T20:03:08;7.80;;;1.30;;
51616;SDS011;37697;52.588;13.394;2023-01-31T20:08:10;9.40;;;1.40;;
51616;SDS011;37697;52.588;13.394;2023-01-31T20:13:13;7.40;;;1.40;;
51616;SDS011;37697;52.588;13.394;2023-01-31T20:18:16;8.50;;;1.70;;
51616;SDS011;37697;52.588;13.394;2023-01-31T20:23:19;6.40;;;1.80;;
51616;SDS011;37697;52.588;13.394;2023-01-31T20:28:23;9.50;;;2.20;;
51616;SDS011;37697;52.588;13.394;2023-01-31T20:33:26;8.60;;;1.50;;
51616;SDS011;37697;52.588;13.394;2023-01-31T20:38:28;9.10;;;1.80;;
51616;SDS011;37697;52.588;13.394;2023-01-31T20:43:32;7.00;;;1.70;;
51616;SDS011;37697;52.588;13.394;2023-01-31T20:48:35;7.50;;;1.40;;
51616;SDS011;37697;52.588;13.394;2023-01-31T20:53:39;11.30;;;2.10;;
51616;SDS011;37697;52.588;13.394;2023-01-31T20:58:42;11.20;;;3.20;;
51616;SDS011;37697;52.588;13.394;2023-01-31T21:03:45;9.90;;;1.80;;
51616;SDS011;37697;52.588;13.394;2023-01-31T21:08:48;8.40;;;1.90;;
51616;SDS011;37697;52.588;13.394;2023-01-31T21:13:50;11.10;;;2.30;;
51616;SDS011;37697;52.588;13.394;2023-01-31T21:18:53;14.10;;;2.10;;
51616;SDS011;37697;52.588;13.394;2023-01-31T21:23:57;11.20;;;2.80;;
51616;SDS011;37697;52.588;13.394;2023-01-31T21:29:00;6.70;;;1.50;;
51616;SDS011;37697;52.588;13.394;2023-01-31T21:34:03;4.90;;;1.10;;
51616;SDS011;37697;52.588;13.394;2023-01-31T21:39:09;3.90;;;1.10;;
51616;SDS011;37697;52.588;13.394;2023-01-31T21:44:13;5.10;;;1.20;;
51616;SDS011;37697;52.588;13.394;2023-01-31T21:49:16;3.40;;;0.80;;
51616;SDS011;37697;52.588;13.394;2023-01-31T21:54:18;2.30;;;0.60;;
51616;SDS011;37697;52.588;13.394;2023-01-31T21:59:21;5.50;;;1.40;;
51616;SDS011;37697;52.588;13.394;2023-01-31T22:04:24;4.20;;;1.50;;
51616;SDS011;37697;52.588;13.394;2023-01-31T22:09:28;6.50;;;0.90;;
51616;SDS011;37697;52.588;13.394;2023-01-31T22:14:30;5.40;;;1.10;;
51616;SDS011;37697;52.588;13.394;2023-01-31T22:19:33;4.80;;;1.00;;
51616;SDS011;37697;52.588;13.394;2023-01-31T22:24:36;7.30;;;1.20;;
51616;SDS011;37697;52.588;13.394;2023-01-31T22:29:38;7.30;;;1.30;;
51616;SDS011;37697;52.588;13.394;2023-01-31T22:34:43;11.10;;;1.50;;
51616;SDS011;37697;52.588;13.394;2023-01-31T22:39:45;9.90;;;1.60;;
51616;SDS011;37697;52.588;13.394;2023-01-31T22:44:48;7.30;;;1.60;;
51616;SDS011;37697;52.588;13.394;2023-01-31T22:49:50;8.40;;;1.50;;
51616;SDS011;37697;52.588;13.394;2023-01-31T22:54:53;7.40;;;1.90;;
51616;SDS011;37697;52.588;13.394;2023-01-31T22:59:55;13.10;;;1.80;;
51616;SDS011;37697;52.588;13.394;2023-01-31T23:04:58;15.10;;;2.70;;
51616;SDS011;37697;52.588;13.394;2023-01-31T23:10:01;12.50;;;2.60;;
51616;SDS011;37697;52.588;13.394;2023-01-31T23:15:03;13.90;;;2.40;;
51616;SDS011;37697;52.588;13.394;2023-01-31T23:20:11;13.40;;;2.00;;
51616;SDS011;37697;52.588;13.394;2023-01-31T23:25:15;15.40;;;2.60;;
51616;SDS011;37697;52.588;13.394;2023-01-31T23:30:18;15.30;;;2.70;;
51616;SDS011;37697;52.588;13.394;2023-01-31T23:35:21;22.50;;;3.40;;
51616;SDS011;37697;52.588;13.394;2023-01-31T23:40:24;19.00;;;4.20;;
51616;SDS011;37697;52.588;13.394;2023-01-31T23:45:27;23.30;;;4.60;;
51616;SDS011;37697;52.588;13.394;2023-01-31T23:50:29;17.40;;;3.30;;
51616;SDS011;37697;52.588;13.394;2023-01-31T23:55:32;13.90;;;2.90;;
